Aviation Digital Data Service (ADDS)

Output produced by METARs form (2256 UTC 23 October 2019)
found at http://www.aviationweather.gov/metar/data/
 
METAR text: ZGNN 232200Z 06003MPS 3000 -RA BR FEW002 SCT004 OVC026 19/18 Q1015 NOSIG
Conditions at: ZGNN (NANNING/WUXU , CN) observed 2200 UTC 23 October 2019
Temperature: 19.0°C (66°F)
Dewpoint: 18.0°C (64°F) [RH = 94%]
Pressure (altimeter): 29.97 inches Hg (1015.0 mb)
Winds: from the ENE (60 degrees) at 7 MPH (6 knots; 3.1 m/s)
Visibility: 1.86 miles (2.99 km)
Ceiling: 2600 feet AGL
Clouds: few clouds at 200 feet AGL
scattered clouds at 400 feet AGL
overcast cloud deck at 2600 feet AGL
Weather: -RA BR  (light rain, mist)

METAR text: ZGNN 232100Z 08002MPS 9000 -RA FEW003 SCT007 OVC026 19/18 Q1015 NOSIG
Conditions at: ZGNN (NANNING/WUXU , CN) observed 2100 UTC 23 October 2019
Temperature: 19.0°C (66°F)
Dewpoint: 18.0°C (64°F) [RH = 94%]
Pressure (altimeter): 29.97 inches Hg (1015.0 mb)
Winds: from the E (80 degrees) at 5 MPH (4 knots; 2.1 m/s)
Visibility: 6 miles ( 9 km)
Ceiling: 2600 feet AGL
Clouds: few clouds at 300 feet AGL
scattered clouds at 700 feet AGL
overcast cloud deck at 2600 feet AGL
Weather: -RA  (light rain)

METAR text: ZGNN 232000Z 11002MPS 080V140 8000 -RA FEW003 SCT006 OVC026 19/18 Q1014 NOSIG
Conditions at: ZGNN (NANNING/WUXU , CN) observed 2000 UTC 23 October 2019
Temperature: 19.0°C (66°F)
Dewpoint: 18.0°C (64°F) [RH = 94%]
Pressure (altimeter): 29.94 inches Hg (1014.0 mb)
Winds: from the ESE (110 degrees) at 5 MPH (4 knots; 2.1 m/s)
Visibility: 5 miles ( 8 km)
Ceiling: 2600 feet AGL
Clouds: few clouds at 300 feet AGL
scattered clouds at 600 feet AGL
overcast cloud deck at 2600 feet AGL
Weather: -RA  (light rain)

METAR text: ZGNN 231900Z 12002MPS 080V140 7000 -RA FEW002 SCT004 OVC026 19/18 Q1014 NOSIG
Conditions at: ZGNN (NANNING/WUXU , CN) observed 1900 UTC 23 October 2019
Temperature: 19.0°C (66°F)
Dewpoint: 18.0°C (64°F) [RH = 94%]
Pressure (altimeter): 29.94 inches Hg (1014.0 mb)
Winds: from the ESE (120 degrees) at 5 MPH (4 knots; 2.1 m/s)
Visibility: 4 miles ( 7 km)
Ceiling: 2600 feet AGL
Clouds: few clouds at 200 feet AGL
scattered clouds at 400 feet AGL
overcast cloud deck at 2600 feet AGL
Weather: -RA  (light rain)

METAR text: ZGNN 231800Z 09002MPS 6000 -RA FEW004 OVC026 19/18 Q1015 NOSIG
Conditions at: ZGNN (NANNING/WUXU , CN) observed 1800 UTC 23 October 2019
Temperature: 19.0°C (66°F)
Dewpoint: 18.0°C (64°F) [RH = 94%]
Pressure (altimeter): 29.97 inches Hg (1015.0 mb)
Winds: from the E (90 degrees) at 5 MPH (4 knots; 2.1 m/s)
Visibility: 4 miles ( 6 km)
Ceiling: 2600 feet AGL
Clouds: few clouds at 400 feet AGL
overcast cloud deck at 2600 feet AGL
Weather: -RA  (light rain)

METAR text: ZGNN 231700Z 09002MPS 6000 -RA FEW004 BKN026 19/18 Q1015 NOSIG
Conditions at: ZGNN (NANNING/WUXU , CN) observed 1700 UTC 23 October 2019
Temperature: 19.0°C (66°F)
Dewpoint: 18.0°C (64°F) [RH = 94%]
Pressure (altimeter): 29.97 inches Hg (1015.0 mb)
Winds: from the E (90 degrees) at 5 MPH (4 knots; 2.1 m/s)
Visibility: 4 miles ( 6 km)
Ceiling: 2600 feet AGL
Clouds: few clouds at 400 feet AGL
broken clouds at 2600 feet AGL
Weather: -RA  (light rain)

METAR text: ZGNN 231600Z 10002MPS 6000 -RA FEW004 OVC033 19/18 Q1015 NOSIG
Conditions at: ZGNN (NANNING/WUXU , CN) observed 1600 UTC 23 October 2019
Temperature: 19.0°C (66°F)
Dewpoint: 18.0°C (64°F) [RH = 94%]
Pressure (altimeter): 29.97 inches Hg (1015.0 mb)
Winds: from the E (100 degrees) at 5 MPH (4 knots; 2.1 m/s)
Visibility: 4 miles ( 6 km)
Ceiling: 3300 feet AGL
Clouds: few clouds at 400 feet AGL
overcast cloud deck at 3300 feet AGL
Weather: -RA  (light rain)

METAR text: ZGNN 231500Z 03003MPS 010V080 7000 -RA SCT011 OVC033 20/18 Q1015 NOSIG
Conditions at: ZGNN (NANNING/WUXU , CN) observed 1500 UTC 23 October 2019
Temperature: 20.0°C (68°F)
Dewpoint: 18.0°C (64°F) [RH = 88%]
Pressure (altimeter): 29.97 inches Hg (1015.0 mb)
Winds: from the NNE (30 degrees) at 7 MPH (6 knots; 3.1 m/s)
Visibility: 4 miles ( 7 km)
Ceiling: 3300 feet AGL
Clouds: scattered clouds at 1100 feet AGL
overcast cloud deck at 3300 feet AGL
Weather: -RA  (light rain)

METAR text: ZGNN 231400Z 05002MPS 030V100 9999 -RA SCT015 OVC030 21/18 Q1015 NOSIG
Conditions at: ZGNN (NANNING/WUXU , CN) observed 1400 UTC 23 October 2019
Temperature: 21.0°C (70°F)
Dewpoint: 18.0°C (64°F) [RH = 83%]
Pressure (altimeter): 29.97 inches Hg (1015.0 mb)
Winds: from the NE (50 degrees) at 5 MPH (4 knots; 2.1 m/s)
Visibility: 6 or more miles (10+ km)
Ceiling: 3000 feet AGL
Clouds: scattered clouds at 1500 feet AGL
overcast cloud deck at 3000 feet AGL
Weather: -RA  (light rain)

METAR text: ZGNN 231300Z 10002MPS 070V140 9999 SCT013 OVC030 21/18 Q1014 NOSIG
Conditions at: ZGNN (NANNING/WUXU , CN) observed 1300 UTC 23 October 2019
Temperature: 21.0°C (70°F)
Dewpoint: 18.0°C (64°F) [RH = 83%]
Pressure (altimeter): 29.94 inches Hg (1014.0 mb)
Winds: from the E (100 degrees) at 5 MPH (4 knots; 2.1 m/s)
Visibility: 6 or more miles (10+ km)
Ceiling: 3000 feet AGL
Clouds: scattered clouds at 1300 feet AGL
overcast cloud deck at 3000 feet AGL
Weather: no significant weather observed at this time

METAR text: ZGNN 231200Z 07002MPS 010V120 9999 FEW011 SCT015 OVC030 21/18 Q1013 NOSIG
Conditions at: ZGNN (NANNING/WUXU , CN) observed 1200 UTC 23 October 2019
Temperature: 21.0°C (70°F)
Dewpoint: 18.0°C (64°F) [RH = 83%]
Pressure (altimeter): 29.91 inches Hg (1013.0 mb)
Winds: from the ENE (70 degrees) at 5 MPH (4 knots; 2.1 m/s)
Visibility: 6 or more miles (10+ km)
Ceiling: 3000 feet AGL
Clouds: few clouds at 1100 feet AGL
scattered clouds at 1500 feet AGL
overcast cloud deck at 3000 feet AGL
Weather: no significant weather observed at this time

METAR text: ZGNN 231100Z 10003MPS 9999 SCT011 OVC030 21/18 Q1012 NOSIG
Conditions at: ZGNN (NANNING/WUXU , CN) observed 1100 UTC 23 October 2019
Temperature: 21.0°C (70°F)
Dewpoint: 18.0°C (64°F) [RH = 83%]
Pressure (altimeter): 29.88 inches Hg (1012.0 mb)
Winds: from the E (100 degrees) at 7 MPH (6 knots; 3.1 m/s)
Visibility: 6 or more miles (10+ km)
Ceiling: 3000 feet AGL
Clouds: scattered clouds at 1100 feet AGL
overcast cloud deck at 3000 feet AGL
Weather: no significant weather observed at this time

METAR text: ZGNN 231000Z 09003MPS 9999 SCT009 OVC030 21/19 Q1012 NOSIG
Conditions at: ZGNN (NANNING/WUXU , CN) observed 1000 UTC 23 October 2019
Temperature: 21.0°C (70°F)
Dewpoint: 19.0°C (66°F) [RH = 88%]
Pressure (altimeter): 29.88 inches Hg (1012.0 mb)
Winds: from the E (90 degrees) at 7 MPH (6 knots; 3.1 m/s)
Visibility: 6 or more miles (10+ km)
Ceiling: 3000 feet AGL
Clouds: scattered clouds at 900 feet AGL
overcast cloud deck at 3000 feet AGL
Weather: no significant weather observed at this time

METAR text: ZGNN 230900Z 02004MPS 9999 SCT008 OVC033 21/19 Q1011 NOSIG
Conditions at: ZGNN (NANNING/WUXU , CN) observed 0900 UTC 23 October 2019
Temperature: 21.0°C (70°F)
Dewpoint: 19.0°C (66°F) [RH = 88%]
Pressure (altimeter): 29.85 inches Hg (1011.0 mb)
Winds: from the NNE (20 degrees) at 9 MPH (8 knots; 4.1 m/s)
Visibility: 6 or more miles (10+ km)
Ceiling: 3300 feet AGL
Clouds: scattered clouds at 800 feet AGL
overcast cloud deck at 3300 feet AGL
Weather: no significant weather observed at this time

METAR text: ZGNN 230800Z 01004MPS 9999 -RA SCT008 OVC033 21/19 Q1011 NOSIG
Conditions at: ZGNN (NANNING/WUXU , CN) observed 0800 UTC 23 October 2019
Temperature: 21.0°C (70°F)
Dewpoint: 19.0°C (66°F) [RH = 88%]
Pressure (altimeter): 29.85 inches Hg (1011.0 mb)
Winds: from the N (10 degrees) at 9 MPH (8 knots; 4.1 m/s)
Visibility: 6 or more miles (10+ km)
Ceiling: 3300 feet AGL
Clouds: scattered clouds at 800 feet AGL
overcast cloud deck at 3300 feet AGL
Weather: -RA  (light rain)

METAR text: ZGNN 230700Z 02005MPS 9999 -SHRA SCT008 FEW023CB BKN033 21/19 Q1011 NOSIG
Conditions at: ZGNN (NANNING/WUXU , CN) observed 0700 UTC 23 October 2019
Temperature: 21.0°C (70°F)
Dewpoint: 19.0°C (66°F) [RH = 88%]
Pressure (altimeter): 29.85 inches Hg (1011.0 mb)
Winds: from the NNE (20 degrees) at 12 MPH (10 knots; 5.1 m/s)
Visibility: 6 or more miles (10+ km)
Ceiling: 3300 feet AGL
Clouds: scattered clouds at 800 feet AGL
few clouds at 2300 feet AGL
broken clouds at 3300 feet AGL
Weather: -SHRA  (light rain showers)

METAR text: ZGNN 230600Z 01007MPS 9999 FEW007 BKN020 FEW023CB 21/19 Q1011 NOSIG
Conditions at: ZGNN (NANNING/WUXU , CN) observed 0600 UTC 23 October 2019
Temperature: 21.0°C (70°F)
Dewpoint: 19.0°C (66°F) [RH = 88%]
Pressure (altimeter): 29.85 inches Hg (1011.0 mb)
Winds: from the N (10 degrees) at 16 MPH (14 knots; 7.2 m/s)
Visibility: 6 or more miles (10+ km)
Ceiling: 2000 feet AGL
Clouds: few clouds at 700 feet AGL
broken clouds at 2000 feet AGL
few clouds at 2300 feet AGL
Weather: no significant weather observed at this time

METAR text: ZGNN 230500Z 34007MPS 9999 FEW008 BKN016 FEW023CB BKN033 23/20 Q1011 NOSIG
Conditions at: ZGNN (NANNING/WUXU , CN) observed 0500 UTC 23 October 2019
Temperature: 23.0°C (73°F)
Dewpoint: 20.0°C (68°F) [RH = 83%]
Pressure (altimeter): 29.85 inches Hg (1011.0 mb)
Winds: from the NNW (340 degrees) at 16 MPH (14 knots; 7.2 m/s)
Visibility: 6 or more miles (10+ km)
Ceiling: 1600 feet AGL
Clouds: few clouds at 800 feet AGL
broken clouds at 1600 feet AGL
few clouds at 2300 feet AGL
broken clouds at 3300 feet AGL
Weather: no significant weather observed at this time

METAR text: ZGNN 230400Z 12003MPS 090V180 9999 SCT020 OVC033 28/22 Q1011 NOSIG
Conditions at: ZGNN (NANNING/WUXU , CN) observed 0400 UTC 23 October 2019
Temperature: 28.0°C (82°F)
Dewpoint: 22.0°C (72°F) [RH = 70%]
Pressure (altimeter): 29.85 inches Hg (1011.0 mb)
Winds: from the ESE (120 degrees) at 7 MPH (6 knots; 3.1 m/s)
Visibility: 6 or more miles (10+ km)
Ceiling: 3300 feet AGL
Clouds: scattered clouds at 2000 feet AGL
overcast cloud deck at 3300 feet AGL
Weather: no significant weather observed at this time

METAR text: ZGNN 230300Z 11003MPS 080V140 9999 FEW016 BKN033 27/22 Q1011 NOSIG
Conditions at: ZGNN (NANNING/WUXU , CN) observed 0300 UTC 23 October 2019
Temperature: 27.0°C (81°F)
Dewpoint: 22.0°C (72°F) [RH = 74%]
Pressure (altimeter): 29.85 inches Hg (1011.0 mb)
Winds: from the ESE (110 degrees) at 7 MPH (6 knots; 3.1 m/s)
Visibility: 6 or more miles (10+ km)
Ceiling: 3300 feet AGL
Clouds: few clouds at 1600 feet AGL
broken clouds at 3300 feet AGL
Weather: no significant weather observed at this time

METAR text: ZGNN 230200Z 16003MPS 110V220 9999 FEW013 BKN040 27/22 Q1011 NOSIG
Conditions at: ZGNN (NANNING/WUXU , CN) observed 0200 UTC 23 October 2019
Temperature: 27.0°C (81°F)
Dewpoint: 22.0°C (72°F) [RH = 74%]
Pressure (altimeter): 29.85 inches Hg (1011.0 mb)
Winds: from the SSE (160 degrees) at 7 MPH (6 knots; 3.1 m/s)
Visibility: 6 or more miles (10+ km)
Ceiling: 4000 feet AGL
Clouds: few clouds at 1300 feet AGL
broken clouds at 4000 feet AGL
Weather: no significant weather observed at this time

METAR text: ZGNN 230100Z 16003MPS 100V240 9999 FEW013 BKN030 26/22 Q1011 NOSIG
Conditions at: ZGNN (NANNING/WUXU , CN) observed 0100 UTC 23 October 2019
Temperature: 26.0°C (79°F)
Dewpoint: 22.0°C (72°F) [RH = 79%]
Pressure (altimeter): 29.85 inches Hg (1011.0 mb)
Winds: from the SSE (160 degrees) at 7 MPH (6 knots; 3.1 m/s)
Visibility: 6 or more miles (10+ km)
Ceiling: 3000 feet AGL
Clouds: few clouds at 1300 feet AGL
broken clouds at 3000 feet AGL
Weather: no significant weather observed at this time

METAR text: ZGNN 230000Z 16003MPS 120V220 9999 BKN033 25/22 Q1010 NOSIG
Conditions at: ZGNN (NANNING/WUXU , CN) observed 0000 UTC 23 October 2019
Temperature: 25.0°C (77°F)
Dewpoint: 22.0°C (72°F) [RH = 83%]
Pressure (altimeter): 29.82 inches Hg (1010.0 mb)
Winds: from the SSE (160 degrees) at 7 MPH (6 knots; 3.1 m/s)
Visibility: 6 or more miles (10+ km)
Ceiling: 3300 feet AGL
Clouds: broken clouds at 3300 feet AGL
Weather: no significant weather observed at this time

METAR text: ZGNN 222300Z 15002MPS 060V230 9999 SCT026 24/22 Q1010 NOSIG
Conditions at: ZGNN (NANNING/WUXU , CN) observed 2300 UTC 22 October 2019
Temperature: 24.0°C (75°F)
Dewpoint: 22.0°C (72°F) [RH = 89%]
Pressure (altimeter): 29.82 inches Hg (1010.0 mb)
Winds: from the SSE (150 degrees) at 5 MPH (4 knots; 2.1 m/s)
Visibility: 6 or more miles (10+ km)
Ceiling: at least 12,000 feet AGL
Clouds: scattered clouds at 2600 feet AGL
Weather: no significant weather observed at this time

METAR text: ZGNN 222200Z 11002MPS 090V150 9999 FEW013 SCT026 24/21 Q1009 NOSIG
Conditions at: ZGNN (NANNING/WUXU , CN) observed 2200 UTC 22 October 2019
Temperature: 24.0°C (75°F)
Dewpoint: 21.0°C (70°F) [RH = 83%]
Pressure (altimeter): 29.79 inches Hg (1009.0 mb)
Winds: from the ESE (110 degrees) at 5 MPH (4 knots; 2.1 m/s)
Visibility: 6 or more miles (10+ km)
Ceiling: at least 12,000 feet AGL
Clouds: few clouds at 1300 feet AGL
scattered clouds at 2600 feet AGL
Weather: no significant weather observed at this time

METAR text: ZGNN 222100Z 13002MPS 9999 SCT013 24/21 Q1009 NOSIG
Conditions at: ZGNN (NANNING/WUXU , CN) observed 2100 UTC 22 October 2019
Temperature: 24.0°C (75°F)
Dewpoint: 21.0°C (70°F) [RH = 83%]
Pressure (altimeter): 29.79 inches Hg (1009.0 mb)
Winds: from the SE (130 degrees) at 5 MPH (4 knots; 2.1 m/s)
Visibility: 6 or more miles (10+ km)
Ceiling: at least 12,000 feet AGL
Clouds: scattered clouds at 1300 feet AGL
Weather: no significant weather observed at this time

METAR text: ZGNN 222000Z 13002MPS 090V150 CAVOK 24/21 Q1008 NOSIG
Conditions at: ZGNN (NANNING/WUXU , CN) observed 2000 UTC 22 October 2019
Temperature: 24.0°C (75°F)
Dewpoint: 21.0°C (70°F) [RH = 83%]
Pressure (altimeter): 29.76 inches Hg (1008.0 mb)
Winds: from the SE (130 degrees) at 5 MPH (4 knots; 2.1 m/s)
Visibility: 6 or more miles (10+ km)
Ceiling: ceiling and visibility are OK
Clouds: unknown
Weather: no significant weather observed at this time

METAR text: ZGNN 221900Z 15002MPS 9999 FEW015 SCT030 24/21 Q1008 NOSIG
Conditions at: ZGNN (NANNING/WUXU , CN) observed 1900 UTC 22 October 2019
Temperature: 24.0°C (75°F)
Dewpoint: 21.0°C (70°F) [RH = 83%]
Pressure (altimeter): 29.76 inches Hg (1008.0 mb)
Winds: from the SSE (150 degrees) at 5 MPH (4 knots; 2.1 m/s)
Visibility: 6 or more miles (10+ km)
Ceiling: at least 12,000 feet AGL
Clouds: few clouds at 1500 feet AGL
scattered clouds at 3000 feet AGL
Weather: no significant weather observed at this time

METAR text: ZGNN 221800Z 14002MPS 100V170 9999 SCT016 25/21 Q1009 NOSIG
Conditions at: ZGNN (NANNING/WUXU , CN) observed 1800 UTC 22 October 2019
Temperature: 25.0°C (77°F)
Dewpoint: 21.0°C (70°F) [RH = 79%]
Pressure (altimeter): 29.79 inches Hg (1009.0 mb)
Winds: from the SE (140 degrees) at 5 MPH (4 knots; 2.1 m/s)
Visibility: 6 or more miles (10+ km)
Ceiling: at least 12,000 feet AGL
Clouds: scattered clouds at 1600 feet AGL
Weather: no significant weather observed at this time

METAR text: ZGNN 221700Z 14003MPS 100V170 9999 SCT030 25/21 Q1009 NOSIG
Conditions at: ZGNN (NANNING/WUXU , CN) observed 1700 UTC 22 October 2019
Temperature: 25.0°C (77°F)
Dewpoint: 21.0°C (70°F) [RH = 79%]
Pressure (altimeter): 29.79 inches Hg (1009.0 mb)
Winds: from the SE (140 degrees) at 7 MPH (6 knots; 3.1 m/s)
Visibility: 6 or more miles (10+ km)
Ceiling: at least 12,000 feet AGL
Clouds: scattered clouds at 3000 feet AGL
Weather: no significant weather observed at this time

METAR text: ZGNN 221600Z VRB01MPS 9999 SCT023 25/21 Q1010 NOSIG
Conditions at: ZGNN (NANNING/WUXU , CN) observed 1600 UTC 22 October 2019
Temperature: 25.0°C (77°F)
Dewpoint: 21.0°C (70°F) [RH = 79%]
Pressure (altimeter): 29.82 inches Hg (1010.0 mb)
Winds: variable direction winds at 2 MPH (2 knots; 1.0 m/s)
Visibility: 6 or more miles (10+ km)
Ceiling: at least 12,000 feet AGL
Clouds: scattered clouds at 2300 feet AGL
Weather: no significant weather observed at this time

METAR text: ZGNN 221500Z VRB01MPS 9999 FEW020 BKN043 25/21 Q1010 NOSIG
Conditions at: ZGNN (NANNING/WUXU , CN) observed 1500 UTC 22 October 2019
Temperature: 25.0°C (77°F)
Dewpoint: 21.0°C (70°F) [RH = 79%]
Pressure (altimeter): 29.82 inches Hg (1010.0 mb)
Winds: variable direction winds at 2 MPH (2 knots; 1.0 m/s)
Visibility: 6 or more miles (10+ km)
Ceiling: 4300 feet AGL
Clouds: few clouds at 2000 feet AGL
broken clouds at 4300 feet AGL
Weather: no significant weather observed at this time

METAR text: ZGNN 221400Z VRB01MPS 9999 BKN036 24/21 Q1010 NOSIG
Conditions at: ZGNN (NANNING/WUXU , CN) observed 1400 UTC 22 October 2019
Temperature: 24.0°C (75°F)
Dewpoint: 21.0°C (70°F) [RH = 83%]
Pressure (altimeter): 29.82 inches Hg (1010.0 mb)
Winds: variable direction winds at 2 MPH (2 knots; 1.0 m/s)
Visibility: 6 or more miles (10+ km)
Ceiling: 3600 feet AGL
Clouds: broken clouds at 3600 feet AGL
Weather: no significant weather observed at this time

METAR text: ZGNN 221300Z VRB01MPS CAVOK 25/20 Q1010 NOSIG
Conditions at: ZGNN (NANNING/WUXU , CN) observed 1300 UTC 22 October 2019
Temperature: 25.0°C (77°F)
Dewpoint: 20.0°C (68°F) [RH = 74%]
Pressure (altimeter): 29.82 inches Hg (1010.0 mb)
Winds: variable direction winds at 2 MPH (2 knots; 1.0 m/s)
Visibility: 6 or more miles (10+ km)
Ceiling: ceiling and visibility are OK
Clouds: unknown
Weather: no significant weather observed at this time

METAR text: ZGNN 221200Z 14002MPS 110V180 CAVOK 25/20 Q1009 NOSIG
Conditions at: ZGNN (NANNING/WUXU , CN) observed 1200 UTC 22 October 2019
Temperature: 25.0°C (77°F)
Dewpoint: 20.0°C (68°F) [RH = 74%]
Pressure (altimeter): 29.79 inches Hg (1009.0 mb)
Winds: from the SE (140 degrees) at 5 MPH (4 knots; 2.1 m/s)
Visibility: 6 or more miles (10+ km)
Ceiling: ceiling and visibility are OK
Clouds: unknown
Weather: no significant weather observed at this time

METAR text: ZGNN 221100Z VRB02MPS 9999 BKN036 26/19 Q1009 NOSIG
Conditions at: ZGNN (NANNING/WUXU , CN) observed 1100 UTC 22 October 2019
Temperature: 26.0°C (79°F)
Dewpoint: 19.0°C (66°F) [RH = 65%]
Pressure (altimeter): 29.79 inches Hg (1009.0 mb)
Winds: variable direction winds at 5 MPH (4 knots; 2.1 m/s)
Visibility: 6 or more miles (10+ km)
Ceiling: 3600 feet AGL
Clouds: broken clouds at 3600 feet AGL
Weather: no significant weather observed at this time

Forecast for: ZGNN (NANNING/WUXU , CN)
Text: TAF ZGNN 231909Z 2400/2424 06003MPS 6000 FEW004 BKN030 TX23/2407Z TN18/2422Z
Forecast period: 0000 to 0200 UTC 24 October 2019
Forecast type: FROM: standard forecast or significant change
Winds: from the ENE (60 degrees) at 7 MPH (6 knots; 3.1 m/s)
Visibility: 4 miles (6 km)
Ceiling: 3000 feet AGL
Clouds: few clouds at 400 feet AGL
broken clouds at 3000 feet AGL
Weather: no significant weather forecast for this period
Text: BECMG 2402/2403 BKN013 BKN030
Forecast period: 0200 UTC 24 October 2019 to 0000 UTC 25 October 2019
Forecast type: BECOMING: Conditions expected to become as follows by 0300 UTC 24 October 2019
Winds: from the ENE (60 degrees) at 7 MPH (6 knots; 3.1 m/s)
Visibility: 4 miles (6 km)
Ceiling: 1300 feet AGL
Clouds: broken clouds at 1300 feet AGL
broken clouds at 3000 feet AGL
Weather: no significant weather forecast for this period